sensor_id;sensor_type;location;lat;lon;timestamp;P1;durP1;ratioP1;P2;durP2;ratioP2
36385;SDS011;24125;47.482;8.770;2023-02-01T00:00:51;4.88;;;3.22;;
36385;SDS011;24125;47.482;8.770;2023-02-01T00:03:24;4.03;;;2.75;;
36385;SDS011;24125;47.482;8.770;2023-02-01T00:05:57;4.15;;;2.95;;
36385;SDS011;24125;47.482;8.770;2023-02-01T00:08:31;6.07;;;2.90;;
36385;SDS011;24125;47.482;8.770;2023-02-01T00:11:05;4.97;;;2.65;;
36385;SDS011;24125;47.482;8.770;2023-02-01T00:13:40;3.90;;;2.70;;
36385;SDS011;24125;47.482;8.770;2023-02-01T00:16:16;4.28;;;2.85;;
36385;SDS011;24125;47.482;8.770;2023-02-01T00:18:51;6.90;;;2.80;;
36385;SDS011;24125;47.482;8.770;2023-02-01T00:21:28;4.30;;;2.60;;
36385;SDS011;24125;47.482;8.770;2023-02-01T00:24:02;5.28;;;3.13;;
36385;SDS011;24125;47.482;8.770;2023-02-01T00:26:37;5.30;;;2.95;;
36385;SDS011;24125;47.482;8.770;2023-02-01T00:29:13;6.32;;;3.25;;
36385;SDS011;24125;47.482;8.770;2023-02-01T00:31:50;4.57;;;2.63;;
36385;SDS011;24125;47.482;8.770;2023-02-01T00:34:24;4.63;;;2.88;;
36385;SDS011;24125;47.482;8.770;2023-02-01T00:36:57;6.97;;;3.35;;
36385;SDS011;24125;47.482;8.770;2023-02-01T00:39:31;7.07;;;3.45;;
36385;SDS011;24125;47.482;8.770;2023-02-01T00:42:04;5.40;;;3.28;;
36385;SDS011;24125;47.482;8.770;2023-02-01T00:44:37;5.10;;;3.22;;
36385;SDS011;24125;47.482;8.770;2023-02-01T00:47:11;6.00;;;3.22;;
36385;SDS011;24125;47.482;8.770;2023-02-01T00:49:44;6.05;;;3.45;;
36385;SDS011;24125;47.482;8.770;2023-02-01T00:52:17;8.40;;;3.65;;
36385;SDS011;24125;47.482;8.770;2023-02-01T00:54:50;5.18;;;3.25;;
36385;SDS011;24125;47.482;8.770;2023-02-01T00:57:23;6.18;;;3.63;;
36385;SDS011;24125;47.482;8.770;2023-02-01T00:59:56;8.48;;;3.38;;
36385;SDS011;24125;47.482;8.770;2023-02-01T01:02:30;5.43;;;3.17;;
36385;SDS011;24125;47.482;8.770;2023-02-01T01:05:03;5.43;;;3.25;;
36385;SDS011;24125;47.482;8.770;2023-02-01T01:07:36;6.82;;;3.55;;
36385;SDS011;24125;47.482;8.770;2023-02-01T01:10:10;6.18;;;3.38;;
36385;SDS011;24125;47.482;8.770;2023-02-01T01:12:43;5.65;;;3.40;;
36385;SDS011;24125;47.482;8.770;2023-02-01T01:15:16;5.28;;;3.13;;
36385;SDS011;24125;47.482;8.770;2023-02-01T01:17:50;5.35;;;3.55;;
36385;SDS011;24125;47.482;8.770;2023-02-01T01:20:23;7.05;;;4.07;;
36385;SDS011;24125;47.482;8.770;2023-02-01T01:22:56;5.65;;;3.60;;
36385;SDS011;24125;47.482;8.770;2023-02-01T01:25:29;7.97;;;3.80;;
36385;SDS011;24125;47.482;8.770;2023-02-01T01:28:02;4.78;;;3.38;;
36385;SDS011;24125;47.482;8.770;2023-02-01T01:30:35;7.15;;;3.45;;
36385;SDS011;24125;47.482;8.770;2023-02-01T01:33:10;6.00;;;3.20;;
36385;SDS011;24125;47.482;8.770;2023-02-01T01:35:43;7.18;;;3.83;;
36385;SDS011;24125;47.482;8.770;2023-02-01T01:38:16;5.88;;;2.90;;
36385;SDS011;24125;47.482;8.770;2023-02-01T01:40:49;5.47;;;3.17;;
36385;SDS011;24125;47.482;8.770;2023-02-01T01:43:22;7.75;;;3.30;;
36385;SDS011;24125;47.482;8.770;2023-02-01T01:45:55;6.03;;;3.50;;
36385;SDS011;24125;47.482;8.770;2023-02-01T01:48:29;4.80;;;2.95;;
36385;SDS011;24125;47.482;8.770;2023-02-01T01:51:04;6.63;;;3.60;;
36385;SDS011;24125;47.482;8.770;2023-02-01T01:53:43;5.38;;;3.25;;
36385;SDS011;24125;47.482;8.770;2023-02-01T01:56:19;5.78;;;3.28;;
36385;SDS011;24125;47.482;8.770;2023-02-01T01:58:52;4.65;;;3.13;;
36385;SDS011;24125;47.482;8.770;2023-02-01T02:01:27;4.00;;;2.88;;
36385;SDS011;24125;47.482;8.770;2023-02-01T02:04:01;4.90;;;3.10;;
36385;SDS011;24125;47.482;8.770;2023-02-01T02:06:40;7.10;;;3.42;;
36385;SDS011;24125;47.482;8.770;2023-02-01T02:09:16;5.45;;;3.58;;
36385;SDS011;24125;47.482;8.770;2023-02-01T02:11:49;5.68;;;3.35;;
36385;SDS011;24125;47.482;8.770;2023-02-01T02:14:23;8.30;;;3.65;;
36385;SDS011;24125;47.482;8.770;2023-02-01T02:16:59;7.80;;;3.53;;
36385;SDS011;24125;47.482;8.770;2023-02-01T02:26:31;4.85;;;2.83;;
36385;SDS011;24125;47.482;8.770;2023-02-01T02:29:17;6.85;;;2.95;;
36385;SDS011;24125;47.482;8.770;2023-02-01T02:32:19;6.45;;;3.10;;
36385;SDS011;24125;47.482;8.770;2023-02-01T02:35:16;5.68;;;3.30;;
36385;SDS011;24125;47.482;8.770;2023-02-01T02:38:02;5.82;;;3.20;;
36385;SDS011;24125;47.482;8.770;2023-02-01T02:40:45;5.15;;;3.33;;
36385;SDS011;24125;47.482;8.770;2023-02-01T02:43:22;5.20;;;3.25;;
36385;SDS011;24125;47.482;8.770;2023-02-01T02:46:16;6.68;;;4.05;;
36385;SDS011;24125;47.482;8.770;2023-02-01T02:49:14;9.32;;;3.83;;
36385;SDS011;24125;47.482;8.770;2023-02-01T02:51:55;8.40;;;4.07;;
36385;SDS011;24125;47.482;8.770;2023-02-01T02:54:48;10.35;;;3.92;;
36385;SDS011;24125;47.482;8.770;2023-02-01T02:57:26;6.25;;;3.53;;
36385;SDS011;24125;47.482;8.770;2023-02-01T03:00:20;5.75;;;3.42;;
36385;SDS011;24125;47.482;8.770;2023-02-01T03:03:13;7.15;;;3.70;;
36385;SDS011;24125;47.482;8.770;2023-02-01T03:06:07;7.10;;;3.45;;
36385;SDS011;24125;47.482;8.770;2023-02-01T03:08:46;5.50;;;3.33;;
36385;SDS011;24125;47.482;8.770;2023-02-01T03:11:19;6.20;;;3.90;;
36385;SDS011;24125;47.482;8.770;2023-02-01T03:13:53;5.88;;;3.33;;
36385;SDS011;24125;47.482;8.770;2023-02-01T03:16:29;5.82;;;3.88;;
36385;SDS011;24125;47.482;8.770;2023-02-01T03:19:06;5.85;;;3.90;;
36385;SDS011;24125;47.482;8.770;2023-02-01T03:21:47;8.32;;;4.32;;
36385;SDS011;24125;47.482;8.770;2023-02-01T03:24:25;8.07;;;4.03;;
36385;SDS011;24125;47.482;8.770;2023-02-01T03:27:05;5.80;;;3.55;;
36385;SDS011;24125;47.482;8.770;2023-02-01T03:29:46;6.90;;;3.50;;
36385;SDS011;24125;47.482;8.770;2023-02-01T03:32:23;6.53;;;3.72;;
36385;SDS011;24125;47.482;8.770;2023-02-01T03:34:56;7.53;;;3.47;;
36385;SDS011;24125;47.482;8.770;2023-02-01T03:37:29;5.03;;;3.40;;
36385;SDS011;24125;47.482;8.770;2023-02-01T03:40:05;4.93;;;3.47;;
36385;SDS011;24125;47.482;8.770;2023-02-01T03:42:40;5.95;;;3.28;;
36385;SDS011;24125;47.482;8.770;2023-02-01T03:45:18;6.03;;;3.60;;
36385;SDS011;24125;47.482;8.770;2023-02-01T03:47:57;6.13;;;3.88;;
36385;SDS011;24125;47.482;8.770;2023-02-01T03:50:33;6.00;;;3.60;;
36385;SDS011;24125;47.482;8.770;2023-02-01T03:53:09;6.75;;;3.95;;
36385;SDS011;24125;47.482;8.770;2023-02-01T03:55:48;6.63;;;3.65;;
36385;SDS011;24125;47.482;8.770;2023-02-01T03:58:24;10.52;;;4.07;;
36385;SDS011;24125;47.482;8.770;2023-02-01T04:00:57;5.03;;;3.47;;
36385;SDS011;24125;47.482;8.770;2023-02-01T04:03:32;6.28;;;3.70;;
36385;SDS011;24125;47.482;8.770;2023-02-01T04:06:05;7.82;;;3.55;;
36385;SDS011;24125;47.482;8.770;2023-02-01T04:08:38;5.97;;;3.63;;
36385;SDS011;24125;47.482;8.770;2023-02-01T04:11:12;6.97;;;3.72;;
36385;SDS011;24125;47.482;8.770;2023-02-01T04:13:45;7.10;;;3.72;;
36385;SDS011;24125;47.482;8.770;2023-02-01T04:16:18;5.97;;;3.15;;
36385;SDS011;24125;47.482;8.770;2023-02-01T04:18:51;6.13;;;3.90;;
36385;SDS011;24125;47.482;8.770;2023-02-01T04:21:24;5.07;;;3.60;;
36385;SDS011;24125;47.482;8.770;2023-02-01T04:23:57;5.43;;;3.47;;
36385;SDS011;24125;47.482;8.770;2023-02-01T04:26:32;4.75;;;3.08;;
36385;SDS011;24125;47.482;8.770;2023-02-01T04:29:05;4.78;;;3.55;;
36385;SDS011;24125;47.482;8.770;2023-02-01T04:31:38;5.28;;;3.58;;
36385;SDS011;24125;47.482;8.770;2023-02-01T04:34:11;6.55;;;4.20;;
36385;SDS011;24125;47.482;8.770;2023-02-01T04:36:44;6.03;;;3.75;;
36385;SDS011;24125;47.482;8.770;2023-02-01T04:39:17;5.47;;;3.13;;
36385;SDS011;24125;47.482;8.770;2023-02-01T04:41:52;5.85;;;3.40;;
36385;SDS011;24125;47.482;8.770;2023-02-01T04:44:25;6.10;;;3.63;;
36385;SDS011;24125;47.482;8.770;2023-02-01T04:46:57;5.30;;;3.60;;
36385;SDS011;24125;47.482;8.770;2023-02-01T04:49:30;5.55;;;3.58;;
36385;SDS011;24125;47.482;8.770;2023-02-01T04:52:03;5.05;;;3.20;;
36385;SDS011;24125;47.482;8.770;2023-02-01T04:54:37;5.32;;;3.50;;
36385;SDS011;24125;47.482;8.770;2023-02-01T04:57:11;5.22;;;3.50;;
36385;SDS011;24125;47.482;8.770;2023-02-01T04:59:44;9.73;;;3.40;;
36385;SDS011;24125;47.482;8.770;2023-02-01T05:02:17;6.75;;;3.63;;
36385;SDS011;24125;47.482;8.770;2023-02-01T05:04:50;4.57;;;3.13;;
36385;SDS011;24125;47.482;8.770;2023-02-01T05:07:23;6.90;;;3.75;;
36385;SDS011;24125;47.482;8.770;2023-02-01T05:09:56;4.80;;;3.38;;
36385;SDS011;24125;47.482;8.770;2023-02-01T05:12:31;6.25;;;3.65;;
36385;SDS011;24125;47.482;8.770;2023-02-01T05:15:21;4.95;;;3.20;;
36385;SDS011;24125;47.482;8.770;2023-02-01T05:17:54;5.65;;;3.30;;
36385;SDS011;24125;47.482;8.770;2023-02-01T05:20:26;5.00;;;3.10;;
36385;SDS011;24125;47.482;8.770;2023-02-01T05:22:59;6.03;;;3.53;;
36385;SDS011;24125;47.482;8.770;2023-02-01T05:25:32;5.75;;;3.10;;
36385;SDS011;24125;47.482;8.770;2023-02-01T05:28:06;6.05;;;3.15;;
36385;SDS011;24125;47.482;8.770;2023-02-01T05:30:39;5.55;;;3.47;;
36385;SDS011;24125;47.482;8.770;2023-02-01T05:33:12;5.75;;;3.45;;
36385;SDS011;24125;47.482;8.770;2023-02-01T05:35:45;5.13;;;3.30;;
36385;SDS011;24125;47.482;8.770;2023-02-01T05:38:18;7.20;;;3.70;;
36385;SDS011;24125;47.482;8.770;2023-02-01T05:40:51;5.38;;;3.20;;
36385;SDS011;24125;47.482;8.770;2023-02-01T05:43:25;6.70;;;3.63;;
36385;SDS011;24125;47.482;8.770;2023-02-01T05:45:58;6.97;;;3.80;;
36385;SDS011;24125;47.482;8.770;2023-02-01T05:48:31;5.63;;;3.15;;
36385;SDS011;24125;47.482;8.770;2023-02-01T05:51:04;5.50;;;3.28;;
36385;SDS011;24125;47.482;8.770;2023-02-01T05:53:37;7.05;;;3.47;;
36385;SDS011;24125;47.482;8.770;2023-02-01T05:56:10;5.72;;;3.10;;
36385;SDS011;24125;47.482;8.770;2023-02-01T05:58:45;6.70;;;3.35;;
36385;SDS011;24125;47.482;8.770;2023-02-01T06:01:17;8.20;;;3.67;;
36385;SDS011;24125;47.482;8.770;2023-02-01T06:03:51;5.93;;;3.50;;
36385;SDS011;24125;47.482;8.770;2023-02-01T06:06:24;4.50;;;3.28;;
36385;SDS011;24125;47.482;8.770;2023-02-01T06:08:57;7.30;;;3.58;;
36385;SDS011;24125;47.482;8.770;2023-02-01T06:11:31;6.28;;;3.60;;
36385;SDS011;24125;47.482;8.770;2023-02-01T06:14:05;5.93;;;3.53;;
36385;SDS011;24125;47.482;8.770;2023-02-01T06:16:39;5.68;;;3.40;;
36385;SDS011;24125;47.482;8.770;2023-02-01T06:19:12;7.50;;;3.88;;
36385;SDS011;24125;47.482;8.770;2023-02-01T06:21:45;6.82;;;3.80;;
36385;SDS011;24125;47.482;8.770;2023-02-01T06:24:18;7.03;;;3.67;;
36385;SDS011;24125;47.482;8.770;2023-02-01T06:26:51;5.25;;;3.20;;
36385;SDS011;24125;47.482;8.770;2023-02-01T06:29:25;6.97;;;3.70;;
36385;SDS011;24125;47.482;8.770;2023-02-01T06:31:58;5.90;;;3.63;;
36385;SDS011;24125;47.482;8.770;2023-02-01T06:34:31;6.13;;;3.70;;
36385;SDS011;24125;47.482;8.770;2023-02-01T06:37:04;5.32;;;3.42;;
36385;SDS011;24125;47.482;8.770;2023-02-01T06:39:37;6.05;;;3.70;;
36385;SDS011;24125;47.482;8.770;2023-02-01T06:42:10;5.68;;;3.15;;
36385;SDS011;24125;47.482;8.770;2023-02-01T06:44:44;8.00;;;3.78;;
36385;SDS011;24125;47.482;8.770;2023-02-01T06:47:17;6.07;;;3.30;;
36385;SDS011;24125;47.482;8.770;2023-02-01T06:49:50;7.25;;;4.20;;
36385;SDS011;24125;47.482;8.770;2023-02-01T06:52:23;5.18;;;3.60;;
36385;SDS011;24125;47.482;8.770;2023-02-01T06:54:56;7.55;;;3.90;;
36385;SDS011;24125;47.482;8.770;2023-02-01T06:57:29;9.18;;;4.25;;
36385;SDS011;24125;47.482;8.770;2023-02-01T07:00:06;6.47;;;3.97;;
36385;SDS011;24125;47.482;8.770;2023-02-01T07:02:40;6.43;;;3.88;;
36385;SDS011;24125;47.482;8.770;2023-02-01T07:05:13;10.55;;;4.18;;
36385;SDS011;24125;47.482;8.770;2023-02-01T07:07:46;6.00;;;3.85;;
36385;SDS011;24125;47.482;8.770;2023-02-01T07:10:19;5.47;;;3.67;;
36385;SDS011;24125;47.482;8.770;2023-02-01T07:12:55;7.10;;;3.88;;
36385;SDS011;24125;47.482;8.770;2023-02-01T07:15:30;8.13;;;3.95;;
36385;SDS011;24125;47.482;8.770;2023-02-01T07:18:03;6.53;;;3.80;;
36385;SDS011;24125;47.482;8.770;2023-02-01T07:20:36;5.40;;;3.70;;
36385;SDS011;24125;47.482;8.770;2023-02-01T07:23:09;6.70;;;3.80;;
36385;SDS011;24125;47.482;8.770;2023-02-01T07:25:43;5.97;;;3.80;;
36385;SDS011;24125;47.482;8.770;2023-02-01T07:28:15;8.27;;;4.43;;
36385;SDS011;24125;47.482;8.770;2023-02-01T07:30:50;6.32;;;3.97;;
36385;SDS011;24125;47.482;8.770;2023-02-01T07:33:23;6.03;;;3.88;;
36385;SDS011;24125;47.482;8.770;2023-02-01T07:35:59;5.53;;;3.50;;
36385;SDS011;24125;47.482;8.770;2023-02-01T07:38:34;7.38;;;4.35;;
36385;SDS011;24125;47.482;8.770;2023-02-01T07:41:07;7.80;;;3.95;;
36385;SDS011;24125;47.482;8.770;2023-02-01T07:43:40;7.40;;;3.95;;
36385;SDS011;24125;47.482;8.770;2023-02-01T07:46:15;7.75;;;4.22;;
36385;SDS011;24125;47.482;8.770;2023-02-01T07:48:48;9.00;;;4.95;;
36385;SDS011;24125;47.482;8.770;2023-02-01T07:51:21;6.82;;;3.88;;
36385;SDS011;24125;47.482;8.770;2023-02-01T07:53:54;7.80;;;4.47;;
36385;SDS011;24125;47.482;8.770;2023-02-01T07:56:27;8.18;;;4.80;;
36385;SDS011;24125;47.482;8.770;2023-02-01T07:59:00;9.23;;;4.95;;
36385;SDS011;24125;47.482;8.770;2023-02-01T08:01:34;6.32;;;4.00;;
36385;SDS011;24125;47.482;8.770;2023-02-01T08:04:08;8.55;;;4.50;;
36385;SDS011;24125;47.482;8.770;2023-02-01T08:06:43;8.10;;;4.95;;
36385;SDS011;24125;47.482;8.770;2023-02-01T08:09:16;8.77;;;4.50;;
36385;SDS011;24125;47.482;8.770;2023-02-01T08:11:49;13.05;;;5.05;;
36385;SDS011;24125;47.482;8.770;2023-02-01T08:14:22;8.95;;;5.38;;
36385;SDS011;24125;47.482;8.770;2023-02-01T08:16:57;9.00;;;5.38;;
36385;SDS011;24125;47.482;8.770;2023-02-01T08:19:29;8.35;;;5.50;;
36385;SDS011;24125;47.482;8.770;2023-02-01T08:22:02;9.35;;;5.70;;
36385;SDS011;24125;47.482;8.770;2023-02-01T08:24:38;9.10;;;5.00;;
36385;SDS011;24125;47.482;8.770;2023-02-01T08:27:12;9.65;;;5.78;;
36385;SDS011;24125;47.482;8.770;2023-02-01T08:29:46;10.88;;;6.00;;
36385;SDS011;24125;47.482;8.770;2023-02-01T08:32:20;10.20;;;5.60;;
36385;SDS011;24125;47.482;8.770;2023-02-01T08:34:53;9.65;;;5.80;;
36385;SDS011;24125;47.482;8.770;2023-02-01T08:37:26;9.65;;;5.90;;
36385;SDS011;24125;47.482;8.770;2023-02-01T08:39:59;10.07;;;5.43;;
36385;SDS011;24125;47.482;8.770;2023-02-01T08:42:32;9.07;;;5.35;;
36385;SDS011;24125;47.482;8.770;2023-02-01T08:45:24;9.97;;;5.63;;
36385;SDS011;24125;47.482;8.770;2023-02-01T08:48:01;10.30;;;5.45;;
36385;SDS011;24125;47.482;8.770;2023-02-01T08:50:34;8.63;;;5.10;;
36385;SDS011;24125;47.482;8.770;2023-02-01T08:53:07;8.70;;;5.13;;
36385;SDS011;24125;47.482;8.770;2023-02-01T08:55:40;8.85;;;5.30;;
36385;SDS011;24125;47.482;8.770;2023-02-01T08:58:12;7.45;;;5.35;;
36385;SDS011;24125;47.482;8.770;2023-02-01T09:00:48;8.98;;;5.63;;
36385;SDS011;24125;47.482;8.770;2023-02-01T09:03:22;9.43;;;4.82;;
36385;SDS011;24125;47.482;8.770;2023-02-01T09:05:59;8.63;;;4.93;;
36385;SDS011;24125;47.482;8.770;2023-02-01T09:08:32;8.90;;;5.10;;
36385;SDS011;24125;47.482;8.770;2023-02-01T09:11:07;9.63;;;4.90;;
36385;SDS011;24125;47.482;8.770;2023-02-01T09:13:40;8.40;;;5.00;;
36385;SDS011;24125;47.482;8.770;2023-02-01T09:16:14;9.90;;;5.25;;
36385;SDS011;24125;47.482;8.770;2023-02-01T09:18:48;8.40;;;5.00;;
36385;SDS011;24125;47.482;8.770;2023-02-01T09:21:41;6.90;;;4.43;;
36385;SDS011;24125;47.482;8.770;2023-02-01T09:24:14;9.52;;;4.43;;
36385;SDS011;24125;47.482;8.770;2023-02-01T09:26:47;6.97;;;4.45;;
36385;SDS011;24125;47.482;8.770;2023-02-01T09:29:20;7.32;;;4.55;;
36385;SDS011;24125;47.482;8.770;2023-02-01T09:31:53;7.78;;;4.18;;
36385;SDS011;24125;47.482;8.770;2023-02-01T09:34:35;8.10;;;4.70;;
36385;SDS011;24125;47.482;8.770;2023-02-01T09:37:08;9.63;;;4.10;;
36385;SDS011;24125;47.482;8.770;2023-02-01T09:39:41;7.25;;;4.03;;
36385;SDS011;24125;47.482;8.770;2023-02-01T09:42:16;6.47;;;3.78;;
36385;SDS011;24125;47.482;8.770;2023-02-01T09:45:10;6.28;;;3.72;;
36385;SDS011;24125;47.482;8.770;2023-02-01T09:47:51;7.22;;;4.03;;
36385;SDS011;24125;47.482;8.770;2023-02-01T09:50:30;5.68;;;3.95;;
36385;SDS011;24125;47.482;8.770;2023-02-01T09:53:10;6.28;;;4.25;;
36385;SDS011;24125;47.482;8.770;2023-02-01T09:55:48;6.35;;;3.85;;
36385;SDS011;24125;47.482;8.770;2023-02-01T09:58:24;6.78;;;4.05;;
36385;SDS011;24125;47.482;8.770;2023-02-01T10:01:03;6.88;;;4.13;;
36385;SDS011;24125;47.482;8.770;2023-02-01T10:03:38;7.15;;;3.53;;
36385;SDS011;24125;47.482;8.770;2023-02-01T10:06:25;5.32;;;3.50;;
36385;SDS011;24125;47.482;8.770;2023-02-01T10:09:14;5.70;;;3.20;;
36385;SDS011;24125;47.482;8.770;2023-02-01T10:12:15;5.90;;;3.10;;
36385;SDS011;24125;47.482;8.770;2023-02-01T10:15:11;4.93;;;3.03;;
36385;SDS011;24125;47.482;8.770;2023-02-01T10:17:56;4.63;;;3.10;;
36385;SDS011;24125;47.482;8.770;2023-02-01T10:20:44;4.43;;;3.10;;
36385;SDS011;24125;47.482;8.770;2023-02-01T10:23:30;3.00;;;2.30;;
36385;SDS011;24125;47.482;8.770;2023-02-01T10:26:17;3.63;;;2.78;;
36385;SDS011;24125;47.482;8.770;2023-02-01T10:28:52;4.95;;;2.70;;
36385;SDS011;24125;47.482;8.770;2023-02-01T10:31:28;4.28;;;2.67;;
36385;SDS011;24125;47.482;8.770;2023-02-01T10:34:07;4.15;;;2.42;;
36385;SDS011;24125;47.482;8.770;2023-02-01T10:36:53;3.13;;;2.20;;
36385;SDS011;24125;47.482;8.770;2023-02-01T10:39:29;3.88;;;2.58;;
36385;SDS011;24125;47.482;8.770;2023-02-01T10:42:02;3.30;;;2.47;;
36385;SDS011;24125;47.482;8.770;2023-02-01T10:44:36;4.15;;;2.95;;
36385;SDS011;24125;47.482;8.770;2023-02-01T10:47:15;6.85;;;3.03;;
36385;SDS011;24125;47.482;8.770;2023-02-01T10:49:49;4.55;;;2.78;;
36385;SDS011;24125;47.482;8.770;2023-02-01T10:52:31;4.32;;;2.78;;
36385;SDS011;24125;47.482;8.770;2023-02-01T10:58:05;4.00;;;2.42;;
36385;SDS011;24125;47.482;8.770;2023-02-01T11:00:42;4.13;;;2.30;;
36385;SDS011;24125;47.482;8.770;2023-02-01T11:03:30;3.17;;;2.05;;
36385;SDS011;24125;47.482;8.770;2023-02-01T11:09:01;2.45;;;1.90;;
36385;SDS011;24125;47.482;8.770;2023-02-01T11:11:55;2.88;;;1.80;;
36385;SDS011;24125;47.482;8.770;2023-02-01T11:14:34;3.35;;;2.38;;
36385;SDS011;24125;47.482;8.770;2023-02-01T11:17:17;3.72;;;2.10;;
36385;SDS011;24125;47.482;8.770;2023-02-01T11:19:58;3.25;;;1.98;;
36385;SDS011;24125;47.482;8.770;2023-02-01T11:22:31;3.88;;;2.00;;
36385;SDS011;24125;47.482;8.770;2023-02-01T11:25:08;2.63;;;2.15;;
36385;SDS011;24125;47.482;8.770;2023-02-01T11:27:44;2.35;;;1.65;;
36385;SDS011;24125;47.482;8.770;2023-02-01T11:30:27;5.05;;;2.50;;
36385;SDS011;24125;47.482;8.770;2023-02-01T11:33:05;3.17;;;2.03;;
36385;SDS011;24125;47.482;8.770;2023-02-01T11:35:43;3.53;;;1.98;;
36385;SDS011;24125;47.482;8.770;2023-02-01T11:38:20;4.63;;;1.83;;
36385;SDS011;24125;47.482;8.770;2023-02-01T11:40:54;3.35;;;1.90;;
36385;SDS011;24125;47.482;8.770;2023-02-01T11:43:29;3.60;;;1.80;;
36385;SDS011;24125;47.482;8.770;2023-02-01T11:46:02;3.40;;;1.90;;
36385;SDS011;24125;47.482;8.770;2023-02-01T11:48:48;2.67;;;1.52;;
36385;SDS011;24125;47.482;8.770;2023-02-01T11:51:26;2.45;;;1.50;;
36385;SDS011;24125;47.482;8.770;2023-02-01T11:54:19;6.68;;;1.80;;
36385;SDS011;24125;47.482;8.770;2023-02-01T11:57:18;3.03;;;1.90;;
36385;SDS011;24125;47.482;8.770;2023-02-01T12:00:14;3.63;;;1.63;;
36385;SDS011;24125;47.482;8.770;2023-02-01T12:03:07;3.50;;;1.70;;
36385;SDS011;24125;47.482;8.770;2023-02-01T12:05:54;2.15;;;1.35;;
36385;SDS011;24125;47.482;8.770;2023-02-01T12:08:49;2.28;;;1.40;;
36385;SDS011;24125;47.482;8.770;2023-02-01T12:11:42;2.97;;;1.40;;
36385;SDS011;24125;47.482;8.770;2023-02-01T12:14:24;2.95;;;1.63;;
36385;SDS011;24125;47.482;8.770;2023-02-01T12:17:16;2.60;;;1.42;;
36385;SDS011;24125;47.482;8.770;2023-02-01T12:20:13;5.10;;;1.65;;
36385;SDS011;24125;47.482;8.770;2023-02-01T12:23:01;4.13;;;1.60;;
36385;SDS011;24125;47.482;8.770;2023-02-01T12:25:51;2.40;;;1.30;;
36385;SDS011;24125;47.482;8.770;2023-02-01T12:28:39;3.10;;;1.48;;
36385;SDS011;24125;47.482;8.770;2023-02-01T12:31:28;3.95;;;1.70;;
36385;SDS011;24125;47.482;8.770;2023-02-01T12:34:21;3.35;;;1.85;;
36385;SDS011;24125;47.482;8.770;2023-02-01T12:37:13;4.75;;;2.30;;
36385;SDS011;24125;47.482;8.770;2023-02-01T12:39:57;4.78;;;2.42;;
36385;SDS011;24125;47.482;8.770;2023-02-01T12:42:38;3.47;;;2.17;;
36385;SDS011;24125;47.482;8.770;2023-02-01T12:45:17;3.63;;;1.98;;
36385;SDS011;24125;47.482;8.770;2023-02-01T12:47:57;3.58;;;1.67;;
36385;SDS011;24125;47.482;8.770;2023-02-01T12:50:38;5.22;;;1.70;;
36385;SDS011;24125;47.482;8.770;2023-02-01T12:53:17;6.10;;;1.50;;
36385;SDS011;24125;47.482;8.770;2023-02-01T12:55:57;2.33;;;1.20;;
36385;SDS011;24125;47.482;8.770;2023-02-01T12:58:35;3.13;;;1.40;;
36385;SDS011;24125;47.482;8.770;2023-02-01T13:01:16;3.28;;;1.70;;
36385;SDS011;24125;47.482;8.770;2023-02-01T13:03:55;3.03;;;1.35;;
36385;SDS011;24125;47.482;8.770;2023-02-01T13:06:34;3.85;;;1.63;;
36385;SDS011;24125;47.482;8.770;2023-02-01T13:09:12;7.57;;;1.50;;
36385;SDS011;24125;47.482;8.770;2023-02-01T13:11:55;4.47;;;1.20;;
36385;SDS011;24125;47.482;8.770;2023-02-01T13:14:39;2.55;;;1.25;;
36385;SDS011;24125;47.482;8.770;2023-02-01T13:17:19;3.97;;;1.60;;
36385;SDS011;24125;47.482;8.770;2023-02-01T13:19:57;3.78;;;1.40;;
36385;SDS011;24125;47.482;8.770;2023-02-01T13:22:34;3.40;;;1.30;;
36385;SDS011;24125;47.482;8.770;2023-02-01T13:25:12;5.43;;;1.48;;
36385;SDS011;24125;47.482;8.770;2023-02-01T13:27:48;4.95;;;1.75;;
36385;SDS011;24125;47.482;8.770;2023-02-01T13:30:23;5.60;;;1.27;;
36385;SDS011;24125;47.482;8.770;2023-02-01T13:42:21;4.95;;;1.33;;
36385;SDS011;24125;47.482;8.770;2023-02-01T13:44:56;4.47;;;1.15;;
36385;SDS011;24125;47.482;8.770;2023-02-01T13:47:32;1.95;;;1.00;;
36385;SDS011;24125;47.482;8.770;2023-02-01T13:50:12;4.63;;;1.02;;
36385;SDS011;24125;47.482;8.770;2023-02-01T13:52:53;3.53;;;1.10;;
36385;SDS011;24125;47.482;8.770;2023-02-01T13:55:31;6.05;;;1.52;;
36385;SDS011;24125;47.482;8.770;2023-02-01T13:58:10;4.50;;;1.35;;
36385;SDS011;24125;47.482;8.770;2023-02-01T14:00:50;4.05;;;1.40;;
36385;SDS011;24125;47.482;8.770;2023-02-01T14:03:42;2.85;;;1.17;;
36385;SDS011;24125;47.482;8.770;2023-02-01T14:06:18;4.57;;;1.15;;
36385;SDS011;24125;47.482;8.770;2023-02-01T14:09:12;3.35;;;1.00;;
36385;SDS011;24125;47.482;8.770;2023-02-01T14:11:50;3.20;;;0.90;;
36385;SDS011;24125;47.482;8.770;2023-02-01T14:23:40;3.30;;;1.00;;
36385;SDS011;24125;47.482;8.770;2023-02-01T14:26:16;2.85;;;0.98;;
36385;SDS011;24125;47.482;8.770;2023-02-01T14:28:55;2.97;;;0.80;;
36385;SDS011;24125;47.482;8.770;2023-02-01T14:31:39;6.10;;;1.10;;
36385;SDS011;24125;47.482;8.770;2023-02-01T14:34:38;3.13;;;1.35;;
36385;SDS011;24125;47.482;8.770;2023-02-01T14:37:25;3.33;;;1.00;;
36385;SDS011;24125;47.482;8.770;2023-02-01T14:40:00;2.88;;;0.70;;
36385;SDS011;24125;47.482;8.770;2023-02-01T14:42:37;3.00;;;1.00;;
36385;SDS011;24125;47.482;8.770;2023-02-01T14:48:42;4.50;;;1.00;;
36385;SDS011;24125;47.482;8.770;2023-02-01T14:51:18;2.20;;;0.90;;
36385;SDS011;24125;47.482;8.770;2023-02-01T14:53:52;3.70;;;1.13;;
36385;SDS011;24125;47.482;8.770;2023-02-01T14:56:25;3.55;;;0.90;;
36385;SDS011;24125;47.482;8.770;2023-02-01T14:59:00;5.25;;;0.90;;
36385;SDS011;24125;47.482;8.770;2023-02-01T15:01:48;8.52;;;1.00;;
36385;SDS011;24125;47.482;8.770;2023-02-01T15:04:24;5.45;;;1.13;;
36385;SDS011;24125;47.482;8.770;2023-02-01T15:06:58;4.60;;;1.10;;
36385;SDS011;24125;47.482;8.770;2023-02-01T15:09:42;2.80;;;0.87;;
36385;SDS011;24125;47.482;8.770;2023-02-01T15:12:17;5.18;;;0.98;;
36385;SDS011;24125;47.482;8.770;2023-02-01T15:15:05;5.40;;;1.20;;
36385;SDS011;24125;47.482;8.770;2023-02-01T15:17:50;5.55;;;1.00;;
36385;SDS011;24125;47.482;8.770;2023-02-01T15:20:25;6.57;;;1.08;;
36385;SDS011;24125;47.482;8.770;2023-02-01T15:23:02;4.78;;;0.93;;
36385;SDS011;24125;47.482;8.770;2023-02-01T15:25:37;3.05;;;1.10;;
36385;SDS011;24125;47.482;8.770;2023-02-01T15:28:12;4.10;;;1.00;;
36385;SDS011;24125;47.482;8.770;2023-02-01T15:30:53;4.15;;;1.02;;
36385;SDS011;24125;47.482;8.770;2023-02-01T15:33:32;4.50;;;1.20;;
36385;SDS011;24125;47.482;8.770;2023-02-01T15:36:09;6.65;;;1.50;;
36385;SDS011;24125;47.482;8.770;2023-02-01T15:47:20;5.28;;;1.30;;
36385;SDS011;24125;47.482;8.770;2023-02-01T15:49:58;5.57;;;1.10;;
36385;SDS011;24125;47.482;8.770;2023-02-01T15:52:34;6.13;;;1.52;;
36385;SDS011;24125;47.482;8.770;2023-02-01T15:55:17;4.13;;;1.30;;
36385;SDS011;24125;47.482;8.770;2023-02-01T15:57:54;7.57;;;1.13;;
36385;SDS011;24125;47.482;8.770;2023-02-01T16:00:28;3.67;;;1.00;;
36385;SDS011;24125;47.482;8.770;2023-02-01T16:03:04;4.20;;;1.30;;
36385;SDS011;24125;47.482;8.770;2023-02-01T16:05:57;5.10;;;1.27;;
36385;SDS011;24125;47.482;8.770;2023-02-01T16:08:32;3.53;;;1.20;;
36385;SDS011;24125;47.482;8.770;2023-02-01T16:11:21;10.90;;;1.40;;
36385;SDS011;24125;47.482;8.770;2023-02-01T16:13:59;2.88;;;1.05;;
36385;SDS011;24125;47.482;8.770;2023-02-01T16:16:32;5.00;;;1.23;;
36385;SDS011;24125;47.482;8.770;2023-02-01T16:19:05;3.75;;;1.15;;
36385;SDS011;24125;47.482;8.770;2023-02-01T16:21:40;4.60;;;1.17;;
36385;SDS011;24125;47.482;8.770;2023-02-01T16:24:14;4.88;;;0.98;;
36385;SDS011;24125;47.482;8.770;2023-02-01T16:26:47;3.30;;;0.93;;
36385;SDS011;24125;47.482;8.770;2023-02-01T16:29:20;7.28;;;1.63;;
36385;SDS011;24125;47.482;8.770;2023-02-01T16:31:54;6.38;;;1.30;;